sensor_id;sensor_type;location;lat;lon;timestamp;temperature;humidity
32787;DHT22;19139;49.372;8.580;2024-03-08T00:00:35;6.30;99.90
32787;DHT22;19139;49.372;8.580;2024-03-08T00:03:01;6.20;99.90
32787;DHT22;19139;49.372;8.580;2024-03-08T00:05:29;6.20;99.90
32787;DHT22;19139;49.372;8.580;2024-03-08T00:07:56;6.30;99.90
32787;DHT22;19139;49.372;8.580;2024-03-08T00:10:23;6.10;99.90
32787;DHT22;19139;49.372;8.580;2024-03-08T00:12:53;6.10;99.90
32787;DHT22;19139;49.372;8.580;2024-03-08T00:15:21;6.10;99.90
32787;DHT22;19139;49.372;8.580;2024-03-08T00:17:49;6.00;99.90
32787;DHT22;19139;49.372;8.580;2024-03-08T00:20:17;5.90;99.90
32787;DHT22;19139;49.372;8.580;2024-03-08T00:22:46;6.00;99.90
32787;DHT22;19139;49.372;8.580;2024-03-08T00:25:13;6.00;99.90
32787;DHT22;19139;49.372;8.580;2024-03-08T00:27:40;6.00;99.90
32787;DHT22;19139;49.372;8.580;2024-03-08T00:30:08;6.00;99.90
32787;DHT22;19139;49.372;8.580;2024-03-08T00:32:35;6.00;99.90
32787;DHT22;19139;49.372;8.580;2024-03-08T00:35:04;6.00;99.90
32787;DHT22;19139;49.372;8.580;2024-03-08T00:37:34;5.80;99.90
32787;DHT22;19139;49.372;8.580;2024-03-08T00:40:04;5.80;99.90
32787;DHT22;19139;49.372;8.580;2024-03-08T00:42:31;5.80;99.90
32787;DHT22;19139;49.372;8.580;2024-03-08T00:44:57;5.80;99.90
32787;DHT22;19139;49.372;8.580;2024-03-08T00:47:25;5.80;99.90
32787;DHT22;19139;49.372;8.580;2024-03-08T00:49:52;5.80;99.90
32787;DHT22;19139;49.372;8.580;2024-03-08T00:52:19;5.60;99.90
32787;DHT22;19139;49.372;8.580;2024-03-08T00:54:46;5.60;99.90
32787;DHT22;19139;49.372;8.580;2024-03-08T00:57:12;5.60;99.90
32787;DHT22;19139;49.372;8.580;2024-03-08T00:59:39;5.80;99.90
32787;DHT22;19139;49.372;8.580;2024-03-08T01:02:06;5.60;99.90
32787;DHT22;19139;49.372;8.580;2024-03-08T01:04:33;5.60;99.90
32787;DHT22;19139;49.372;8.580;2024-03-08T01:07:00;5.60;99.90
32787;DHT22;19139;49.372;8.580;2024-03-08T01:09:27;5.50;99.90
32787;DHT22;19139;49.372;8.580;2024-03-08T01:11:54;5.50;99.90
32787;DHT22;19139;49.372;8.580;2024-03-08T01:14:23;5.60;99.90
32787;DHT22;19139;49.372;8.580;2024-03-08T01:16:50;5.60;99.90
32787;DHT22;19139;49.372;8.580;2024-03-08T01:19:17;5.50;99.90
32787;DHT22;19139;49.372;8.580;2024-03-08T01:21:44;5.50;99.90
32787;DHT22;19139;49.372;8.580;2024-03-08T01:24:11;5.40;99.90
32787;DHT22;19139;49.372;8.580;2024-03-08T01:26:37;5.40;99.90
32787;DHT22;19139;49.372;8.580;2024-03-08T01:29:05;5.40;99.90
32787;DHT22;19139;49.372;8.580;2024-03-08T01:31:32;5.40;99.90
32787;DHT22;19139;49.372;8.580;2024-03-08T01:33:58;5.20;99.90
32787;DHT22;19139;49.372;8.580;2024-03-08T01:36:25;5.30;99.90
32787;DHT22;19139;49.372;8.580;2024-03-08T01:38:52;5.20;99.90
32787;DHT22;19139;49.372;8.580;2024-03-08T01:41:19;5.20;99.90
32787;DHT22;19139;49.372;8.580;2024-03-08T01:43:46;5.30;99.90
32787;DHT22;19139;49.372;8.580;2024-03-08T01:46:17;5.10;99.90
32787;DHT22;19139;49.372;8.580;2024-03-08T01:48:45;5.20;99.90
32787;DHT22;19139;49.372;8.580;2024-03-08T01:51:12;5.20;99.90
32787;DHT22;19139;49.372;8.580;2024-03-08T01:53:42;5.10;99.90
32787;DHT22;19139;49.372;8.580;2024-03-08T01:56:12;5.10;99.90
32787;DHT22;19139;49.372;8.580;2024-03-08T01:58:43;5.10;99.90
32787;DHT22;19139;49.372;8.580;2024-03-08T02:01:13;5.00;99.90
32787;DHT22;19139;49.372;8.580;2024-03-08T02:03:44;5.10;99.90
32787;DHT22;19139;49.372;8.580;2024-03-08T02:06:12;5.00;99.90
32787;DHT22;19139;49.372;8.580;2024-03-08T02:08:45;4.90;99.90
32787;DHT22;19139;49.372;8.580;2024-03-08T02:11:13;5.00;99.90
32787;DHT22;19139;49.372;8.580;2024-03-08T02:13:40;5.00;99.90
32787;DHT22;19139;49.372;8.580;2024-03-08T02:16:07;5.00;99.90
32787;DHT22;19139;49.372;8.580;2024-03-08T02:18:35;5.00;99.90
32787;DHT22;19139;49.372;8.580;2024-03-08T02:21:04;5.00;99.90
32787;DHT22;19139;49.372;8.580;2024-03-08T02:23:32;5.00;99.90
32787;DHT22;19139;49.372;8.580;2024-03-08T02:26:00;4.90;99.90
32787;DHT22;19139;49.372;8.580;2024-03-08T02:28:27;5.00;99.90
32787;DHT22;19139;49.372;8.580;2024-03-08T02:30:55;5.10;99.90
32787;DHT22;19139;49.372;8.580;2024-03-08T02:33:26;4.90;99.90
32787;DHT22;19139;49.372;8.580;2024-03-08T02:35:53;4.90;99.90
32787;DHT22;19139;49.372;8.580;2024-03-08T02:38:21;4.90;99.90
32787;DHT22;19139;49.372;8.580;2024-03-08T02:40:50;4.80;99.90
32787;DHT22;19139;49.372;8.580;2024-03-08T02:43:18;4.90;99.90
32787;DHT22;19139;49.372;8.580;2024-03-08T02:45:46;4.80;99.90
32787;DHT22;19139;49.372;8.580;2024-03-08T02:48:14;4.80;99.90
32787;DHT22;19139;49.372;8.580;2024-03-08T02:50:41;4.80;99.90
32787;DHT22;19139;49.372;8.580;2024-03-08T02:53:13;4.80;99.90
32787;DHT22;19139;49.372;8.580;2024-03-08T02:55:41;4.80;99.90
32787;DHT22;19139;49.372;8.580;2024-03-08T02:58:08;4.80;99.90
32787;DHT22;19139;49.372;8.580;2024-03-08T03:00:38;4.70;99.90
32787;DHT22;19139;49.372;8.580;2024-03-08T03:03:08;4.70;99.90
32787;DHT22;19139;49.372;8.580;2024-03-08T03:05:35;4.70;99.90
32787;DHT22;19139;49.372;8.580;2024-03-08T03:08:02;4.70;99.90
32787;DHT22;19139;49.372;8.580;2024-03-08T03:10:35;4.70;99.90
32787;DHT22;19139;49.372;8.580;2024-03-08T03:13:02;4.70;99.90
32787;DHT22;19139;49.372;8.580;2024-03-08T03:15:31;4.80;99.90
32787;DHT22;19139;49.372;8.580;2024-03-08T03:17:57;4.70;99.90
32787;DHT22;19139;49.372;8.580;2024-03-08T03:20:24;4.60;99.90
32787;DHT22;19139;49.372;8.580;2024-03-08T03:22:59;4.70;99.90
32787;DHT22;19139;49.372;8.580;2024-03-08T03:25:28;4.50;99.90
32787;DHT22;19139;49.372;8.580;2024-03-08T03:28:03;4.60;99.90
32787;DHT22;19139;49.372;8.580;2024-03-08T03:30:31;4.70;99.90
32787;DHT22;19139;49.372;8.580;2024-03-08T03:33:00;4.60;99.90
32787;DHT22;19139;49.372;8.580;2024-03-08T03:35:28;4.50;99.90
32787;DHT22;19139;49.372;8.580;2024-03-08T03:37:58;4.50;99.90
32787;DHT22;19139;49.372;8.580;2024-03-08T03:40:37;4.50;99.90
32787;DHT22;19139;49.372;8.580;2024-03-08T03:43:04;4.60;99.90
32787;DHT22;19139;49.372;8.580;2024-03-08T03:45:31;4.50;99.90
32787;DHT22;19139;49.372;8.580;2024-03-08T03:48:04;4.50;99.90
32787;DHT22;19139;49.372;8.580;2024-03-08T03:50:31;4.40;99.90
32787;DHT22;19139;49.372;8.580;2024-03-08T03:53:01;4.50;99.90
32787;DHT22;19139;49.372;8.580;2024-03-08T03:55:29;4.40;99.90
32787;DHT22;19139;49.372;8.580;2024-03-08T03:57:55;4.40;99.90
32787;DHT22;19139;49.372;8.580;2024-03-08T04:00:22;4.50;99.90
32787;DHT22;19139;49.372;8.580;2024-03-08T04:02:49;4.40;99.90
32787;DHT22;19139;49.372;8.580;2024-03-08T04:05:16;4.40;99.90
32787;DHT22;19139;49.372;8.580;2024-03-08T04:07:43;4.50;99.90
32787;DHT22;19139;49.372;8.580;2024-03-08T04:10:11;4.50;99.90
32787;DHT22;19139;49.372;8.580;2024-03-08T04:12:38;4.40;99.90
32787;DHT22;19139;49.372;8.580;2024-03-08T04:15:05;4.30;99.90
32787;DHT22;19139;49.372;8.580;2024-03-08T04:17:34;4.20;99.90
32787;DHT22;19139;49.372;8.580;2024-03-08T04:20:06;4.30;99.90
32787;DHT22;19139;49.372;8.580;2024-03-08T04:22:37;4.40;99.90
32787;DHT22;19139;49.372;8.580;2024-03-08T04:25:04;4.30;99.90
32787;DHT22;19139;49.372;8.580;2024-03-08T04:27:32;4.30;99.90
32787;DHT22;19139;49.372;8.580;2024-03-08T04:30:00;4.20;99.90
32787;DHT22;19139;49.372;8.580;2024-03-08T04:32:27;4.30;99.90
32787;DHT22;19139;49.372;8.580;2024-03-08T04:34:56;4.20;99.90
32787;DHT22;19139;49.372;8.580;2024-03-08T04:37:23;4.30;99.90
32787;DHT22;19139;49.372;8.580;2024-03-08T04:39:51;4.30;99.90
32787;DHT22;19139;49.372;8.580;2024-03-08T04:42:18;4.30;99.90
32787;DHT22;19139;49.372;8.580;2024-03-08T04:44:45;4.20;99.90
32787;DHT22;19139;49.372;8.580;2024-03-08T04:47:12;4.20;99.90
32787;DHT22;19139;49.372;8.580;2024-03-08T04:49:39;4.20;99.90
32787;DHT22;19139;49.372;8.580;2024-03-08T04:52:06;4.20;99.90
32787;DHT22;19139;49.372;8.580;2024-03-08T04:54:33;4.20;99.90
32787;DHT22;19139;49.372;8.580;2024-03-08T04:57:00;4.20;99.90
32787;DHT22;19139;49.372;8.580;2024-03-08T04:59:29;4.10;99.90
32787;DHT22;19139;49.372;8.580;2024-03-08T05:01:56;4.10;99.90
32787;DHT22;19139;49.372;8.580;2024-03-08T05:04:23;4.10;99.90
32787;DHT22;19139;49.372;8.580;2024-03-08T05:06:50;4.10;99.90
32787;DHT22;19139;49.372;8.580;2024-03-08T05:09:16;4.00;99.90
32787;DHT22;19139;49.372;8.580;2024-03-08T05:11:45;4.10;99.90
32787;DHT22;19139;49.372;8.580;2024-03-08T05:14:12;4.10;99.90
32787;DHT22;19139;49.372;8.580;2024-03-08T05:16:44;4.10;99.90
32787;DHT22;19139;49.372;8.580;2024-03-08T05:19:15;4.10;99.90
32787;DHT22;19139;49.372;8.580;2024-03-08T05:21:46;4.10;99.90
32787;DHT22;19139;49.372;8.580;2024-03-08T05:24:13;4.10;99.90
32787;DHT22;19139;49.372;8.580;2024-03-08T05:26:46;4.10;99.90
32787;DHT22;19139;49.372;8.580;2024-03-08T05:29:14;4.20;99.90
32787;DHT22;19139;49.372;8.580;2024-03-08T05:31:49;4.20;99.90
32787;DHT22;19139;49.372;8.580;2024-03-08T05:34:16;4.00;99.90
32787;DHT22;19139;49.372;8.580;2024-03-08T05:36:43;4.00;99.90
32787;DHT22;19139;49.372;8.580;2024-03-08T05:39:14;4.00;99.90
32787;DHT22;19139;49.372;8.580;2024-03-08T05:41:42;3.90;99.90
32787;DHT22;19139;49.372;8.580;2024-03-08T05:44:09;4.00;99.90
32787;DHT22;19139;49.372;8.580;2024-03-08T05:46:37;4.00;99.90
32787;DHT22;19139;49.372;8.580;2024-03-08T05:49:04;4.00;99.90
32787;DHT22;19139;49.372;8.580;2024-03-08T05:51:37;3.90;99.90
32787;DHT22;19139;49.372;8.580;2024-03-08T05:54:07;4.00;99.90
32787;DHT22;19139;49.372;8.580;2024-03-08T05:56:37;4.10;99.90
32787;DHT22;19139;49.372;8.580;2024-03-08T05:59:04;4.00;99.90
32787;DHT22;19139;49.372;8.580;2024-03-08T06:01:30;3.90;99.90
32787;DHT22;19139;49.372;8.580;2024-03-08T06:03:57;3.90;99.90
32787;DHT22;19139;49.372;8.580;2024-03-08T06:06:25;3.80;99.90
32787;DHT22;19139;49.372;8.580;2024-03-08T06:08:52;3.80;99.90
32787;DHT22;19139;49.372;8.580;2024-03-08T06:11:20;3.90;99.90
32787;DHT22;19139;49.372;8.580;2024-03-08T06:13:47;3.90;99.90
32787;DHT22;19139;49.372;8.580;2024-03-08T06:16:14;3.90;99.90
32787;DHT22;19139;49.372;8.580;2024-03-08T06:18:41;3.90;99.90
32787;DHT22;19139;49.372;8.580;2024-03-08T06:21:09;3.90;99.90
32787;DHT22;19139;49.372;8.580;2024-03-08T06:23:38;3.90;99.90
32787;DHT22;19139;49.372;8.580;2024-03-08T06:26:05;4.00;99.90
32787;DHT22;19139;49.372;8.580;2024-03-08T06:28:32;3.90;99.90
32787;DHT22;19139;49.372;8.580;2024-03-08T06:30:59;3.90;99.90
32787;DHT22;19139;49.372;8.580;2024-03-08T06:33:26;3.90;99.90
32787;DHT22;19139;49.372;8.580;2024-03-08T06:35:55;4.00;99.90
32787;DHT22;19139;49.372;8.580;2024-03-08T06:38:24;3.90;99.90
32787;DHT22;19139;49.372;8.580;2024-03-08T06:40:52;4.10;99.90
32787;DHT22;19139;49.372;8.580;2024-03-08T06:43:19;4.10;99.90
32787;DHT22;19139;49.372;8.580;2024-03-08T06:45:46;4.10;99.90
32787;DHT22;19139;49.372;8.580;2024-03-08T06:48:18;4.20;99.90
32787;DHT22;19139;49.372;8.580;2024-03-08T06:50:46;4.30;99.90
32787;DHT22;19139;49.372;8.580;2024-03-08T06:53:14;4.20;99.90
32787;DHT22;19139;49.372;8.580;2024-03-08T06:55:42;4.30;99.90
32787;DHT22;19139;49.372;8.580;2024-03-08T06:58:09;4.30;99.90
32787;DHT22;19139;49.372;8.580;2024-03-08T07:00:37;4.50;99.90
32787;DHT22;19139;49.372;8.580;2024-03-08T07:03:07;4.40;99.90
32787;DHT22;19139;49.372;8.580;2024-03-08T07:05:38;4.50;99.90
32787;DHT22;19139;49.372;8.580;2024-03-08T07:08:07;4.50;99.90
32787;DHT22;19139;49.372;8.580;2024-03-08T07:10:34;4.50;99.90
32787;DHT22;19139;49.372;8.580;2024-03-08T07:13:02;4.60;99.90
32787;DHT22;19139;49.372;8.580;2024-03-08T07:15:29;4.60;99.90
32787;DHT22;19139;49.372;8.580;2024-03-08T07:17:55;4.70;99.90
32787;DHT22;19139;49.372;8.580;2024-03-08T07:20:22;4.60;99.90
32787;DHT22;19139;49.372;8.580;2024-03-08T07:22:49;4.80;99.90
32787;DHT22;19139;49.372;8.580;2024-03-08T07:25:17;4.70;99.90
32787;DHT22;19139;49.372;8.580;2024-03-08T07:27:49;4.80;99.90
32787;DHT22;19139;49.372;8.580;2024-03-08T07:30:16;4.80;99.90
32787;DHT22;19139;49.372;8.580;2024-03-08T07:33:04;5.00;99.90
32787;DHT22;19139;49.372;8.580;2024-03-08T07:35:31;5.00;99.90
32787;DHT22;19139;49.372;8.580;2024-03-08T07:37:58;5.00;99.90
32787;DHT22;19139;49.372;8.580;2024-03-08T07:40:26;5.10;99.90
32787;DHT22;19139;49.372;8.580;2024-03-08T07:42:53;5.10;99.90
32787;DHT22;19139;49.372;8.580;2024-03-08T07:45:20;5.20;99.90
32787;DHT22;19139;49.372;8.580;2024-03-08T07:47:48;5.20;99.90
32787;DHT22;19139;49.372;8.580;2024-03-08T07:50:15;5.30;99.90
32787;DHT22;19139;49.372;8.580;2024-03-08T07:52:43;5.30;99.90
32787;DHT22;19139;49.372;8.580;2024-03-08T07:55:10;5.40;99.90
32787;DHT22;19139;49.372;8.580;2024-03-08T07:57:39;5.50;99.90
32787;DHT22;19139;49.372;8.580;2024-03-08T08:00:06;5.50;99.90
32787;DHT22;19139;49.372;8.580;2024-03-08T08:02:35;5.60;99.90
32787;DHT22;19139;49.372;8.580;2024-03-08T08:05:06;5.40;99.90
32787;DHT22;19139;49.372;8.580;2024-03-08T08:07:33;5.60;99.90
32787;DHT22;19139;49.372;8.580;2024-03-08T08:10:00;5.50;99.90
32787;DHT22;19139;49.372;8.580;2024-03-08T08:12:26;5.70;99.90
32787;DHT22;19139;49.372;8.580;2024-03-08T08:14:54;5.80;99.90
32787;DHT22;19139;49.372;8.580;2024-03-08T08:17:21;5.80;99.90
32787;DHT22;19139;49.372;8.580;2024-03-08T08:19:48;5.90;99.90
32787;DHT22;19139;49.372;8.580;2024-03-08T08:22:15;5.80;99.90
32787;DHT22;19139;49.372;8.580;2024-03-08T08:24:41;5.90;99.90
32787;DHT22;19139;49.372;8.580;2024-03-08T08:27:08;5.90;99.90
32787;DHT22;19139;49.372;8.580;2024-03-08T08:29:35;5.90;99.90
32787;DHT22;19139;49.372;8.580;2024-03-08T08:32:02;6.10;99.90
32787;DHT22;19139;49.372;8.580;2024-03-08T08:34:30;6.00;99.90
32787;DHT22;19139;49.372;8.580;2024-03-08T08:36:57;6.20;99.90
32787;DHT22;19139;49.372;8.580;2024-03-08T08:39:24;6.30;99.90
32787;DHT22;19139;49.372;8.580;2024-03-08T08:41:52;6.40;99.90
32787;DHT22;19139;49.372;8.580;2024-03-08T08:44:21;6.40;99.90
32787;DHT22;19139;49.372;8.580;2024-03-08T08:46:48;6.60;99.90
32787;DHT22;19139;49.372;8.580;2024-03-08T08:49:16;6.70;99.90
32787;DHT22;19139;49.372;8.580;2024-03-08T08:51:50;6.40;99.90
32787;DHT22;19139;49.372;8.580;2024-03-08T08:54:18;6.30;99.90
32787;DHT22;19139;49.372;8.580;2024-03-08T08:56:45;6.50;99.90
32787;DHT22;19139;49.372;8.580;2024-03-08T08:59:12;6.50;99.90
32787;DHT22;19139;49.372;8.580;2024-03-08T09:01:40;6.40;99.90
32787;DHT22;19139;49.372;8.580;2024-03-08T09:04:07;6.30;99.90
32787;DHT22;19139;49.372;8.580;2024-03-08T09:06:35;6.40;99.90
32787;DHT22;19139;49.372;8.580;2024-03-08T09:09:02;6.40;99.90
32787;DHT22;19139;49.372;8.580;2024-03-08T09:11:32;6.30;99.90
32787;DHT22;19139;49.372;8.580;2024-03-08T09:13:59;6.30;99.90
32787;DHT22;19139;49.372;8.580;2024-03-08T09:16:26;6.20;99.90
32787;DHT22;19139;49.372;8.580;2024-03-08T09:18:53;6.40;99.90
32787;DHT22;19139;49.372;8.580;2024-03-08T09:21:19;6.40;99.90
32787;DHT22;19139;49.372;8.580;2024-03-08T09:23:49;6.80;99.90
32787;DHT22;19139;49.372;8.580;2024-03-08T09:26:16;6.80;99.90
32787;DHT22;19139;49.372;8.580;2024-03-08T09:28:54;6.80;99.90
32787;DHT22;19139;49.372;8.580;2024-03-08T09:31:23;6.80;99.90
32787;DHT22;19139;49.372;8.580;2024-03-08T09:33:50;7.00;99.90
32787;DHT22;19139;49.372;8.580;2024-03-08T09:36:17;7.00;99.90
32787;DHT22;19139;49.372;8.580;2024-03-08T09:38:44;6.90;99.90
32787;DHT22;19139;49.372;8.580;2024-03-08T09:41:10;6.80;99.90
32787;DHT22;19139;49.372;8.580;2024-03-08T09:43:37;7.00;99.90
32787;DHT22;19139;49.372;8.580;2024-03-08T09:46:04;6.80;99.90
32787;DHT22;19139;49.372;8.580;2024-03-08T09:48:34;6.80;99.90
32787;DHT22;19139;49.372;8.580;2024-03-08T09:51:03;6.70;99.90
32787;DHT22;19139;49.372;8.580;2024-03-08T09:53:30;6.80;99.90
32787;DHT22;19139;49.372;8.580;2024-03-08T09:55:57;6.90;99.90
32787;DHT22;19139;49.372;8.580;2024-03-08T09:58:24;6.70;99.90
32787;DHT22;19139;49.372;8.580;2024-03-08T10:01:00;6.50;99.90
32787;DHT22;19139;49.372;8.580;2024-03-08T10:03:31;6.80;99.90
32787;DHT22;19139;49.372;8.580;2024-03-08T10:06:01;6.70;99.90
32787;DHT22;19139;49.372;8.580;2024-03-08T10:08:28;6.50;99.90
32787;DHT22;19139;49.372;8.580;2024-03-08T10:10:58;6.60;99.90
32787;DHT22;19139;49.372;8.580;2024-03-08T10:13:25;6.80;99.90
32787;DHT22;19139;49.372;8.580;2024-03-08T10:15:55;6.80;99.90
32787;DHT22;19139;49.372;8.580;2024-03-08T10:18:22;6.90;99.90
32787;DHT22;19139;49.372;8.580;2024-03-08T10:21:06;6.90;99.90
32787;DHT22;19139;49.372;8.580;2024-03-08T10:23:34;7.00;99.90
32787;DHT22;19139;49.372;8.580;2024-03-08T10:26:14;7.10;99.90
32787;DHT22;19139;49.372;8.580;2024-03-08T10:28:42;7.30;99.90
32787;DHT22;19139;49.372;8.580;2024-03-08T10:31:09;7.10;99.90
32787;DHT22;19139;49.372;8.580;2024-03-08T10:33:36;7.20;99.90
32787;DHT22;19139;49.372;8.580;2024-03-08T10:36:11;7.20;99.90
32787;DHT22;19139;49.372;8.580;2024-03-08T10:38:39;7.30;99.90
32787;DHT22;19139;49.372;8.580;2024-03-08T10:41:09;7.20;99.90
32787;DHT22;19139;49.372;8.580;2024-03-08T10:44:10;7.30;99.90
32787;DHT22;19139;49.372;8.580;2024-03-08T10:49:17;7.40;99.90
32787;DHT22;19139;49.372;8.580;2024-03-08T10:51:46;7.60;99.90
32787;DHT22;19139;49.372;8.580;2024-03-08T10:54:19;7.60;99.90
32787;DHT22;19139;49.372;8.580;2024-03-08T10:56:48;7.60;99.90
32787;DHT22;19139;49.372;8.580;2024-03-08T10:59:18;7.70;99.90
32787;DHT22;19139;49.372;8.580;2024-03-08T11:01:45;7.90;99.90
32787;DHT22;19139;49.372;8.580;2024-03-08T11:04:13;8.10;99.90
32787;DHT22;19139;49.372;8.580;2024-03-08T11:06:42;8.80;99.90
32787;DHT22;19139;49.372;8.580;2024-03-08T11:09:30;8.70;99.90
32787;DHT22;19139;49.372;8.580;2024-03-08T11:12:26;8.80;99.90
32787;DHT22;19139;49.372;8.580;2024-03-08T11:14:59;8.90;99.90
32787;DHT22;19139;49.372;8.580;2024-03-08T11:19:57;9.10;99.90
32787;DHT22;19139;49.372;8.580;2024-03-08T11:22:30;8.90;99.90
32787;DHT22;19139;49.372;8.580;2024-03-08T11:25:02;8.90;99.90
32787;DHT22;19139;49.372;8.580;2024-03-08T11:27:32;8.80;99.90
32787;DHT22;19139;49.372;8.580;2024-03-08T11:30:07;8.80;99.90
32787;DHT22;19139;49.372;8.580;2024-03-08T11:32:50;8.60;99.90
32787;DHT22;19139;49.372;8.580;2024-03-08T11:35:20;8.70;99.90
32787;DHT22;19139;49.372;8.580;2024-03-08T11:37:47;9.20;99.90
32787;DHT22;19139;49.372;8.580;2024-03-08T11:40:15;9.90;99.90
32787;DHT22;19139;49.372;8.580;2024-03-08T11:42:46;10.20;99.90
32787;DHT22;19139;49.372;8.580;2024-03-08T11:45:18;10.50;99.90
32787;DHT22;19139;49.372;8.580;2024-03-08T11:47:48;10.50;99.90
32787;DHT22;19139;49.372;8.580;2024-03-08T11:50:16;10.90;99.90
32787;DHT22;19139;49.372;8.580;2024-03-08T11:52:46;10.90;99.90
32787;DHT22;19139;49.372;8.580;2024-03-08T11:55:14;11.10;99.90
32787;DHT22;19139;49.372;8.580;2024-03-08T11:57:40;11.20;99.90
32787;DHT22;19139;49.372;8.580;2024-03-08T12:00:15;11.20;99.90
32787;DHT22;19139;49.372;8.580;2024-03-08T12:03:06;11.30;99.90
32787;DHT22;19139;49.372;8.580;2024-03-08T12:05:33;11.40;99.90
32787;DHT22;19139;49.372;8.580;2024-03-08T12:08:02;11.50;99.90
32787;DHT22;19139;49.372;8.580;2024-03-08T12:10:29;11.30;99.90
32787;DHT22;19139;49.372;8.580;2024-03-08T12:12:58;11.40;99.90
32787;DHT22;19139;49.372;8.580;2024-03-08T12:15:32;11.40;99.90
32787;DHT22;19139;49.372;8.580;2024-03-08T12:18:00;11.60;99.90
32787;DHT22;19139;49.372;8.580;2024-03-08T12:20:28;11.60;99.90
32787;DHT22;19139;49.372;8.580;2024-03-08T12:23:06;11.80;99.00
32787;DHT22;19139;49.372;8.580;2024-03-08T12:25:42;11.90;97.90
32787;DHT22;19139;49.372;8.580;2024-03-08T12:28:12;11.70;99.00
32787;DHT22;19139;49.372;8.580;2024-03-08T12:30:51;11.80;98.70
32787;DHT22;19139;49.372;8.580;2024-03-08T12:33:33;12.10;99.40
32787;DHT22;19139;49.372;8.580;2024-03-08T12:36:03;12.30;99.90
32787;DHT22;19139;49.372;8.580;2024-03-08T12:38:40;11.80;98.10
32787;DHT22;19139;49.372;8.580;2024-03-08T12:41:09;11.70;98.50
32787;DHT22;19139;49.372;8.580;2024-03-08T12:43:36;11.90;99.60
32787;DHT22;19139;49.372;8.580;2024-03-08T12:46:03;12.20;97.60
32787;DHT22;19139;49.372;8.580;2024-03-08T12:48:35;12.30;97.90
32787;DHT22;19139;49.372;8.580;2024-03-08T12:51:02;12.40;97.40
32787;DHT22;19139;49.372;8.580;2024-03-08T12:53:29;12.10;97.80
32787;DHT22;19139;49.372;8.580;2024-03-08T12:55:55;12.30;97.30
32787;DHT22;19139;49.372;8.580;2024-03-08T12:58:23;12.60;97.10
32787;DHT22;19139;49.372;8.580;2024-03-08T13:00:50;12.60;97.80
32787;DHT22;19139;49.372;8.580;2024-03-08T13:03:19;12.80;96.00
32787;DHT22;19139;49.372;8.580;2024-03-08T13:05:47;12.80;97.50
32787;DHT22;19139;49.372;8.580;2024-03-08T13:08:14;12.90;96.10
32787;DHT22;19139;49.372;8.580;2024-03-08T13:10:42;13.00;96.80
32787;DHT22;19139;49.372;8.580;2024-03-08T13:13:11;12.70;97.40
32787;DHT22;19139;49.372;8.580;2024-03-08T13:15:44;13.00;97.00
32787;DHT22;19139;49.372;8.580;2024-03-08T13:18:11;13.20;97.40
32787;DHT22;19139;49.372;8.580;2024-03-08T13:20:38;13.10;96.70
32787;DHT22;19139;49.372;8.580;2024-03-08T13:23:13;13.10;96.50
32787;DHT22;19139;49.372;8.580;2024-03-08T13:25:40;13.50;95.90
32787;DHT22;19139;49.372;8.580;2024-03-08T13:28:07;13.50;94.70
32787;DHT22;19139;49.372;8.580;2024-03-08T13:30:35;13.40;95.90
32787;DHT22;19139;49.372;8.580;2024-03-08T13:33:02;13.60;95.90
32787;DHT22;19139;49.372;8.580;2024-03-08T13:35:31;13.70;94.50
32787;DHT22;19139;49.372;8.580;2024-03-08T13:37:59;13.80;94.20
32787;DHT22;19139;49.372;8.580;2024-03-08T13:40:26;13.90;93.60
32787;DHT22;19139;49.372;8.580;2024-03-08T13:42:53;13.90;94.00
32787;DHT22;19139;49.372;8.580;2024-03-08T13:45:20;14.10;94.50
32787;DHT22;19139;49.372;8.580;2024-03-08T13:47:52;14.00;93.10
32787;DHT22;19139;49.372;8.580;2024-03-08T13:50:20;13.80;94.20
32787;DHT22;19139;49.372;8.580;2024-03-08T13:52:51;14.20;94.10
32787;DHT22;19139;49.372;8.580;2024-03-08T13:55:20;14.00;93.70
32787;DHT22;19139;49.372;8.580;2024-03-08T13:57:48;14.10;93.00
32787;DHT22;19139;49.372;8.580;2024-03-08T14:00:16;14.20;94.00
32787;DHT22;19139;49.372;8.580;2024-03-08T14:02:43;14.30;93.60
32787;DHT22;19139;49.372;8.580;2024-03-08T14:05:10;14.10;92.80
32787;DHT22;19139;49.372;8.580;2024-03-08T14:07:38;14.30;92.50
32787;DHT22;19139;49.372;8.580;2024-03-08T14:10:05;14.20;93.40
32787;DHT22;19139;49.372;8.580;2024-03-08T14:12:33;14.50;93.60
32787;DHT22;19139;49.372;8.580;2024-03-08T14:15:01;14.40;92.80
32787;DHT22;19139;49.372;8.580;2024-03-08T14:17:30;14.60;92.10
32787;DHT22;19139;49.372;8.580;2024-03-08T14:19:57;14.70;92.50
32787;DHT22;19139;49.372;8.580;2024-03-08T14:22:25;14.80;92.50
32787;DHT22;19139;49.372;8.580;2024-03-08T14:24:52;14.90;91.80
32787;DHT22;19139;49.372;8.580;2024-03-08T14:27:22;14.80;92.10
32787;DHT22;19139;49.372;8.580;2024-03-08T14:29:49;14.90;91.60
32787;DHT22;19139;49.372;8.580;2024-03-08T14:32:15;14.80;91.60
32787;DHT22;19139;49.372;8.580;2024-03-08T14:34:46;15.10;91.30
32787;DHT22;19139;49.372;8.580;2024-03-08T14:37:12;15.20;91.60
32787;DHT22;19139;49.372;8.580;2024-03-08T14:39:40;15.40;90.70
32787;DHT22;19139;49.372;8.580;2024-03-08T14:42:07;15.50;91.20
32787;DHT22;19139;49.372;8.580;2024-03-08T14:44:35;15.30;91.30
32787;DHT22;19139;49.372;8.580;2024-03-08T14:47:04;15.50;91.00
32787;DHT22;19139;49.372;8.580;2024-03-08T14:49:32;15.80;90.00
32787;DHT22;19139;49.372;8.580;2024-03-08T14:52:00;15.60;88.40
32787;DHT22;19139;49.372;8.580;2024-03-08T14:54:27;15.90;89.40
32787;DHT22;19139;49.372;8.580;2024-03-08T14:56:54;16.30;89.40
32787;DHT22;19139;49.372;8.580;2024-03-08T14:59:23;16.00;88.20
32787;DHT22;19139;49.372;8.580;2024-03-08T15:01:53;16.00;89.30
32787;DHT22;19139;49.372;8.580;2024-03-08T15:04:19;16.10;89.50
32787;DHT22;19139;49.372;8.580;2024-03-08T15:06:46;16.50;88.10
32787;DHT22;19139;49.372;8.580;2024-03-08T15:09:18;17.20;86.30
32787;DHT22;19139;49.372;8.580;2024-03-08T15:11:47;15.90;86.80
32787;DHT22;19139;49.372;8.580;2024-03-08T15:14:17;16.70;87.80
32787;DHT22;19139;49.372;8.580;2024-03-08T15:16:46;18.20;83.50
32787;DHT22;19139;49.372;8.580;2024-03-08T15:19:14;18.80;82.60
32787;DHT22;19139;49.372;8.580;2024-03-08T15:21:42;19.20;79.70
32787;DHT22;19139;49.372;8.580;2024-03-08T15:24:12;17.60;81.30
32787;DHT22;19139;49.372;8.580;2024-03-08T15:26:42;15.30;84.70
32787;DHT22;19139;49.372;8.580;2024-03-08T15:29:10;14.30;89.40
32787;DHT22;19139;49.372;8.580;2024-03-08T15:31:39;14.20;89.20
32787;DHT22;19139;49.372;8.580;2024-03-08T15:34:07;14.00;90.10
32787;DHT22;19139;49.372;8.580;2024-03-08T15:36:35;13.80;90.30
32787;DHT22;19139;49.372;8.580;2024-03-08T15:39:02;13.50;90.50
32787;DHT22;19139;49.372;8.580;2024-03-08T15:41:29;13.40;91.00
32787;DHT22;19139;49.372;8.580;2024-03-08T15:43:56;13.10;91.80
32787;DHT22;19139;49.372;8.580;2024-03-08T15:46:23;13.10;91.80
32787;DHT22;19139;49.372;8.580;2024-03-08T15:48:51;13.10;91.70
32787;DHT22;19139;49.372;8.580;2024-03-08T15:51:18;12.80;92.30
32787;DHT22;19139;49.372;8.580;2024-03-08T15:53:46;12.70;92.60
32787;DHT22;19139;49.372;8.580;2024-03-08T15:56:23;12.80;93.10